createdAt,value
2019-03-31T00:00:36.176Z,27.43
2019-03-31T00:03:04.185Z,25.20
2019-03-31T00:05:32.368Z,21.83
2019-03-31T00:08:00.270Z,21.30
2019-03-31T00:10:28.052Z,22.10
2019-03-31T00:12:56.583Z,19.30
2019-03-31T00:15:24.289Z,19.33
2019-03-31T00:17:52.018Z,22.20
2019-03-31T00:20:19.759Z,21.40
2019-03-31T00:22:47.522Z,17.57
2019-03-31T00:25:15.404Z,18.30
2019-03-31T00:27:43.185Z,19.27
2019-03-31T00:30:11.233Z,20.13
2019-03-31T00:32:39.000Z,25.17
2019-03-31T00:35:07.114Z,17.97
2019-03-31T00:37:35.009Z,16.87
2019-03-31T00:40:02.950Z,17.40
2019-03-31T00:42:30.757Z,20.73
2019-03-31T00:44:58.509Z,17.57
2019-03-31T00:47:26.375Z,18.50
2019-03-31T00:49:54.243Z,21.30
2019-03-31T00:52:22.166Z,16.07
2019-03-31T00:54:49.979Z,14.60
2019-03-31T00:57:17.817Z,17.37
2019-03-31T00:59:45.701Z,19.13
2019-03-31T01:02:18.484Z,17.87
2019-03-31T01:04:46.595Z,15.43
2019-03-31T01:07:14.410Z,17.90
2019-03-31T01:09:43.058Z,16.60
2019-03-31T01:12:10.955Z,17.93
2019-03-31T01:14:43.040Z,33.37
2019-03-31T01:17:12.562Z,19.70
2019-03-31T01:19:40.348Z,17.00
2019-03-31T01:22:09.077Z,14.83
2019-03-31T01:24:37.069Z,14.43
2019-03-31T01:27:08.412Z,19.03
2019-03-31T01:29:36.428Z,18.97
2019-03-31T01:32:04.295Z,16.63
2019-03-31T01:34:32.673Z,16.90
2019-03-31T01:37:00.549Z,18.80
2019-03-31T01:39:30.091Z,16.80
2019-03-31T01:41:58.933Z,17.10
2019-03-31T01:44:26.693Z,15.23
2019-03-31T01:46:54.548Z,18.33
2019-03-31T01:49:22.475Z,19.20
2019-03-31T01:51:50.345Z,17.43
2019-03-31T01:54:18.312Z,17.40
2019-03-31T01:56:46.153Z,19.60
2019-03-31T01:59:14.226Z,15.63
2019-03-31T02:01:42.055Z,15.03
2019-03-31T02:04:10.055Z,16.20
2019-03-31T02:06:37.812Z,18.70
2019-03-31T02:09:06.254Z,18.67
2019-03-31T02:11:34.210Z,21.73
2019-03-31T02:14:02.076Z,21.57
2019-03-31T02:16:30.017Z,21.30
2019-03-31T02:18:57.930Z,21.60
2019-03-31T02:21:25.797Z,19.30
2019-03-31T02:23:53.583Z,18.23
2019-03-31T02:26:21.608Z,18.70
2019-03-31T02:28:49.371Z,20.03
2019-03-31T02:31:16.993Z,21.07
2019-03-31T02:33:44.927Z,18.33
2019-03-31T02:36:12.795Z,19.33
2019-03-31T02:38:40.740Z,18.47
2019-03-31T02:41:08.646Z,18.97
2019-03-31T02:43:36.569Z,18.70
2019-03-31T02:46:04.780Z,18.20
2019-03-31T02:48:32.590Z,18.47
2019-03-31T02:51:00.514Z,21.03
2019-03-31T02:53:28.379Z,16.53
2019-03-31T02:55:56.948Z,17.10
2019-03-31T02:58:25.796Z,17.70
2019-03-31T03:00:53.866Z,17.03
2019-03-31T03:03:21.705Z,19.97
2019-03-31T03:05:49.638Z,19.83
2019-03-31T03:08:20.381Z,20.80
2019-03-31T03:10:53.153Z,20.07
2019-03-31T03:13:23.281Z,17.60
2019-03-31T03:16:10.099Z,17.77
2019-03-31T03:18:38.027Z,20.70
2019-03-31T03:21:05.875Z,22.00
2019-03-31T03:23:33.474Z,17.43
2019-03-31T03:26:01.125Z,19.67
2019-03-31T03:28:28.913Z,27.87
2019-03-31T03:30:56.832Z,20.37
2019-03-31T03:33:24.620Z,16.97
2019-03-31T03:35:52.859Z,18.87
2019-03-31T03:38:20.624Z,20.00
2019-03-31T03:40:49.326Z,19.37
2019-03-31T03:43:17.066Z,18.00
2019-03-31T03:45:45.099Z,19.27
2019-03-31T03:48:12.845Z,18.50
2019-03-31T03:50:40.697Z,20.90
2019-03-31T03:53:09.017Z,21.80
2019-03-31T03:55:36.657Z,18.20
2019-03-31T03:58:04.547Z,21.40
2019-03-31T04:00:32.444Z,22.43
2019-03-31T04:03:00.059Z,19.83
2019-03-31T04:05:27.973Z,18.73
2019-03-31T04:07:55.937Z,22.63
2019-03-31T04:11:13.404Z,21.83
2019-03-31T04:13:41.145Z,17.10
2019-03-31T04:16:09.111Z,21.07
2019-03-31T04:18:36.991Z,17.70
2019-03-31T04:21:04.754Z,18.97
2019-03-31T04:23:32.508Z,18.23
2019-03-31T04:26:00.538Z,19.70
2019-03-31T04:28:28.306Z,23.63
2019-03-31T04:30:56.296Z,20.43
2019-03-31T04:33:24.074Z,26.43
2019-03-31T04:35:51.954Z,26.37
2019-03-31T04:38:19.672Z,27.10
2019-03-31T04:40:47.674Z,24.37
2019-03-31T04:43:15.847Z,26.13
2019-03-31T04:45:43.760Z,30.50
2019-03-31T04:48:11.425Z,25.70
2019-03-31T04:50:39.239Z,28.40
2019-03-31T04:53:07.141Z,22.60
2019-03-31T04:55:35.010Z,25.40
2019-03-31T04:58:02.807Z,26.20
2019-03-31T05:00:30.713Z,21.63
2019-03-31T05:02:58.348Z,22.10
2019-03-31T05:05:26.614Z,21.93
2019-03-31T05:07:54.657Z,22.30
2019-03-31T05:10:22.430Z,20.73
2019-03-31T05:12:50.543Z,23.70
2019-03-31T05:15:19.293Z,21.90
2019-03-31T05:17:47.037Z,21.37
2019-03-31T05:20:14.959Z,21.23
2019-03-31T05:22:42.840Z,19.63
2019-03-31T05:25:10.563Z,23.07
2019-03-31T05:27:38.557Z,20.10
2019-03-31T05:30:06.882Z,19.67
2019-03-31T05:32:34.631Z,20.53
2019-03-31T05:35:02.504Z,21.60
2019-03-31T05:37:30.033Z,19.53
2019-03-31T05:39:57.780Z,21.97
2019-03-31T05:42:25.459Z,19.47
2019-03-31T05:44:53.207Z,19.63
2019-03-31T05:47:20.845Z,20.93
2019-03-31T05:49:48.604Z,20.60
2019-03-31T05:52:16.498Z,19.80
2019-03-31T05:54:44.402Z,23.07
2019-03-31T05:57:12.007Z,26.63
2019-03-31T05:59:39.901Z,23.57
2019-03-31T06:02:08.997Z,24.53
2019-03-31T06:04:36.938Z,21.83
2019-03-31T06:07:05.772Z,23.63
2019-03-31T06:09:33.533Z,28.33
2019-03-31T06:12:01.537Z,23.43
2019-03-31T06:14:29.333Z,20.80
2019-03-31T06:16:57.125Z,24.00
2019-03-31T06:19:24.880Z,22.07
2019-03-31T06:21:52.752Z,20.93
2019-03-31T06:24:20.610Z,21.07
2019-03-31T06:26:48.462Z,23.37
2019-03-31T06:29:16.219Z,25.07
2019-03-31T06:31:43.976Z,25.40
2019-03-31T06:34:11.685Z,21.37
2019-03-31T06:36:39.423Z,23.93
2019-03-31T06:39:07.388Z,25.73
2019-03-31T06:41:35.392Z,29.97
2019-03-31T06:44:03.610Z,28.40
2019-03-31T06:46:31.324Z,24.37
2019-03-31T06:48:59.362Z,29.40
2019-03-31T06:51:27.266Z,23.33
2019-03-31T06:53:55.060Z,21.43
2019-03-31T06:56:22.917Z,29.77
2019-03-31T06:58:50.752Z,23.47
2019-03-31T07:01:18.610Z,23.20
2019-03-31T07:03:46.620Z,23.03
2019-03-31T07:06:14.735Z,19.97
2019-03-31T07:08:42.497Z,23.83
2019-03-31T07:11:10.365Z,22.93
2019-03-31T07:13:38.392Z,22.10
2019-03-31T07:16:06.562Z,25.77
2019-03-31T07:18:34.361Z,24.87
2019-03-31T07:21:03.023Z,19.97
2019-03-31T07:23:31.002Z,21.57
2019-03-31T07:25:58.860Z,21.30
2019-03-31T07:28:26.639Z,20.87
2019-03-31T07:30:54.527Z,21.27
2019-03-31T07:33:22.407Z,23.20
2019-03-31T07:35:50.327Z,17.60
2019-03-31T07:38:18.181Z,18.03
2019-03-31T07:40:46.339Z,19.57
2019-03-31T07:43:14.086Z,22.73
2019-03-31T07:45:42.045Z,23.67
2019-03-31T07:48:09.816Z,21.40
2019-03-31T07:50:37.908Z,23.17
2019-03-31T07:53:05.838Z,26.63
2019-03-31T07:55:33.666Z,26.97
2019-03-31T07:58:01.828Z,25.17
2019-03-31T08:00:30.011Z,22.50
2019-03-31T08:03:00.334Z,21.20
2019-03-31T08:05:33.923Z,28.00
2019-03-31T08:07:57.123Z,26.93
2019-03-31T08:10:25.042Z,26.33
2019-03-31T08:12:52.966Z,28.63
2019-03-31T08:15:20.867Z,23.97
2019-03-31T08:17:48.473Z,29.17
2019-03-31T08:20:18.133Z,27.40
2019-03-31T08:22:46.286Z,28.07
2019-03-31T08:25:14.641Z,23.67
2019-03-31T08:27:42.608Z,28.30
2019-03-31T08:30:12.283Z,29.13
2019-03-31T08:32:40.396Z,32.07
2019-03-31T08:35:09.158Z,27.73
2019-03-31T08:37:36.951Z,25.07
2019-03-31T08:40:06.328Z,30.03
2019-03-31T08:42:34.255Z,27.33
2019-03-31T08:45:02.193Z,27.70
2019-03-31T08:47:29.958Z,28.20
2019-03-31T08:49:57.823Z,32.93
2019-03-31T08:52:25.510Z,32.43
2019-03-31T08:54:53.309Z,30.40
2019-03-31T08:57:21.073Z,27.37
2019-03-31T08:59:50.104Z,28.83
2019-03-31T09:02:36.047Z,29.77
2019-03-31T09:05:05.901Z,29.47
2019-03-31T09:07:33.771Z,28.83
2019-03-31T09:10:01.893Z,30.27
2019-03-31T09:12:31.717Z,30.73
2019-03-31T09:14:59.490Z,33.37
2019-03-31T09:17:26.998Z,34.23
2019-03-31T09:19:55.048Z,31.17
2019-03-31T09:22:22.904Z,30.77
2019-03-31T09:24:50.623Z,32.03
2019-03-31T09:27:18.851Z,31.40
2019-03-31T09:29:46.599Z,32.50
2019-03-31T09:32:14.669Z,29.37
2019-03-31T09:34:42.585Z,32.60
2019-03-31T09:37:10.335Z,27.90
2019-03-31T09:39:38.420Z,34.67
2019-03-31T09:42:06.472Z,29.20
2019-03-31T09:44:34.409Z,33.70
2019-03-31T09:47:02.430Z,28.37
2019-03-31T09:49:30.232Z,25.80
2019-03-31T09:51:58.021Z,32.70
2019-03-31T09:54:25.794Z,33.03
2019-03-31T09:56:53.694Z,28.50
2019-03-31T09:59:21.467Z,34.90
2019-03-31T10:01:49.381Z,32.40
2019-03-31T10:04:17.317Z,36.43
2019-03-31T10:06:45.250Z,33.73
2019-03-31T10:09:13.107Z,33.77
2019-03-31T10:11:41.005Z,34.60
2019-03-31T10:14:08.626Z,34.77
2019-03-31T10:16:36.282Z,38.93
2019-03-31T10:19:04.205Z,32.70
2019-03-31T10:21:32.119Z,34.93
2019-03-31T10:24:00.148Z,34.63
2019-03-31T10:26:32.107Z,36.90
2019-03-31T10:28:58.493Z,35.53
2019-03-31T10:31:26.480Z,38.43
2019-03-31T10:33:54.329Z,32.47
2019-03-31T10:36:22.127Z,35.27
2019-03-31T10:38:49.881Z,33.43
2019-03-31T10:41:18.210Z,39.43
2019-03-31T10:43:46.192Z,37.77
2019-03-31T10:46:14.506Z,38.03
2019-03-31T10:48:42.399Z,38.03
2019-03-31T10:51:10.160Z,36.77
2019-03-31T10:53:37.940Z,33.90
2019-03-31T10:56:05.811Z,41.23
2019-03-31T10:58:33.717Z,37.73
2019-03-31T11:01:01.461Z,36.43
2019-03-31T11:03:29.105Z,42.07
2019-03-31T11:05:56.908Z,39.23
2019-03-31T11:08:25.804Z,30.63
2019-03-31T11:10:53.721Z,35.57
2019-03-31T11:13:21.393Z,38.33
2019-03-31T11:15:49.164Z,38.30
2019-03-31T11:18:17.773Z,18.00
2019-03-31T11:20:46.359Z,14.13
2019-03-31T11:23:22.368Z,23.33
2019-03-31T11:25:50.106Z,31.03
2019-03-31T11:28:17.993Z,32.70
2019-03-31T11:30:45.798Z,34.20
2019-03-31T11:33:13.681Z,36.20
2019-03-31T11:35:41.541Z,23.60
2019-03-31T11:38:09.182Z,27.30
2019-03-31T11:40:37.074Z,24.37
2019-03-31T11:43:04.847Z,23.27
2019-03-31T11:45:32.645Z,21.73
2019-03-31T11:48:00.436Z,21.37
2019-03-31T11:50:28.148Z,22.47
2019-03-31T11:52:55.824Z,26.27
2019-03-31T11:55:23.605Z,26.70
2019-03-31T11:57:51.596Z,24.60
2019-03-31T12:00:20.126Z,26.20
2019-03-31T12:02:47.909Z,23.60
2019-03-31T12:05:15.803Z,19.93
2019-03-31T12:07:47.179Z,17.80
2019-03-31T12:10:14.414Z,21.63
2019-03-31T12:12:42.254Z,25.00
2019-03-31T12:15:11.676Z,21.90
2019-03-31T12:17:39.443Z,25.27
2019-03-31T12:20:07.486Z,27.67
2019-03-31T12:22:35.271Z,25.13
2019-03-31T12:25:03.475Z,21.77
2019-03-31T12:27:31.164Z,18.07
2019-03-31T12:29:58.700Z,18.93
2019-03-31T12:32:26.353Z,16.53
2019-03-31T12:34:54.516Z,25.20
2019-03-31T12:37:22.301Z,26.30
2019-03-31T12:39:50.237Z,21.43
2019-03-31T12:42:17.986Z,28.37
2019-03-31T12:44:46.566Z,18.97
2019-03-31T12:47:14.348Z,23.87
2019-03-31T12:49:41.966Z,22.90
2019-03-31T12:52:09.854Z,23.27
2019-03-31T12:54:38.949Z,20.57
2019-03-31T12:57:06.863Z,20.83
2019-03-31T12:59:34.521Z,20.60
2019-03-31T13:02:02.408Z,22.73
2019-03-31T13:04:30.179Z,20.10
2019-03-31T13:06:57.934Z,24.93
2019-03-31T13:09:25.862Z,19.07
2019-03-31T13:11:53.502Z,22.57
2019-03-31T13:14:22.642Z,18.00
2019-03-31T13:16:50.433Z,19.70
2019-03-31T13:19:18.251Z,18.50
2019-03-31T13:21:46.021Z,18.77
2019-03-31T13:24:14.291Z,17.07
2019-03-31T13:26:42.026Z,18.97
2019-03-31T13:29:09.751Z,16.97
2019-03-31T13:31:37.524Z,17.77
2019-03-31T13:34:05.258Z,16.67
2019-03-31T13:36:33.233Z,18.53
2019-03-31T13:39:00.854Z,16.27
2019-03-31T13:41:28.596Z,20.60
2019-03-31T13:43:56.446Z,14.33
2019-03-31T13:46:24.219Z,15.50
2019-03-31T13:48:51.871Z,18.00
2019-03-31T13:51:19.623Z,16.37
2019-03-31T13:53:48.098Z,13.50
2019-03-31T13:56:16.533Z,14.80
2019-03-31T13:58:52.633Z,14.83
2019-03-31T14:01:14.303Z,17.67
2019-03-31T14:03:42.302Z,12.90
2019-03-31T14:06:10.136Z,13.63
2019-03-31T14:08:37.899Z,12.67
2019-03-31T14:11:05.701Z,13.73
2019-03-31T14:13:33.507Z,11.27
2019-03-31T14:16:01.333Z,10.50
2019-03-31T14:18:29.958Z,13.43
2019-03-31T14:20:57.869Z,12.77
2019-03-31T14:23:26.854Z,14.60
2019-03-31T14:25:54.494Z,13.83
2019-03-31T14:28:22.400Z,11.90
2019-03-31T14:30:50.366Z,12.13
2019-03-31T14:33:18.117Z,10.27
2019-03-31T14:35:45.866Z,12.20
2019-03-31T14:38:13.802Z,11.60
2019-03-31T14:40:41.571Z,11.03
2019-03-31T14:43:09.505Z,14.37
2019-03-31T14:45:37.809Z,10.67
2019-03-31T14:48:05.800Z,9.00
2019-03-31T14:50:35.412Z,12.93
2019-03-31T14:53:03.882Z,9.73
2019-03-31T14:55:31.812Z,10.40
2019-03-31T14:57:59.681Z,9.43
2019-03-31T15:00:28.064Z,9.80
2019-03-31T15:02:55.959Z,10.20
2019-03-31T15:05:23.899Z,8.50
2019-03-31T15:07:51.638Z,8.77
2019-03-31T15:10:19.240Z,11.40
2019-03-31T15:12:47.033Z,9.27
2019-03-31T15:15:14.933Z,8.27
2019-03-31T15:17:42.798Z,8.93
2019-03-31T15:20:10.545Z,7.47
2019-03-31T15:22:38.352Z,10.50
2019-03-31T15:25:06.118Z,9.17
2019-03-31T15:27:34.025Z,8.23
2019-03-31T15:30:01.946Z,6.87
2019-03-31T15:32:30.324Z,7.33
2019-03-31T15:34:58.160Z,8.27
2019-03-31T15:37:26.067Z,5.70
2019-03-31T15:39:53.838Z,12.07
2019-03-31T15:42:21.643Z,10.23
2019-03-31T15:44:49.565Z,7.00
2019-03-31T15:47:17.493Z,7.20
2019-03-31T15:49:45.265Z,8.60
2019-03-31T15:52:13.156Z,9.23
2019-03-31T15:54:41.319Z,8.70
2019-03-31T15:57:09.181Z,13.50
2019-03-31T15:59:37.106Z,14.63
2019-03-31T16:02:04.839Z,9.10
2019-03-31T16:04:32.558Z,13.17
2019-03-31T16:07:00.342Z,8.70
2019-03-31T16:09:27.704Z,8.67
2019-03-31T16:11:55.096Z,10.83
2019-03-31T16:14:22.502Z,13.13
2019-03-31T16:16:49.907Z,9.27
2019-03-31T16:19:18.329Z,9.67
2019-03-31T16:21:45.453Z,8.50
2019-03-31T16:24:12.661Z,7.23
2019-03-31T16:26:40.048Z,9.23
2019-03-31T16:29:07.601Z,7.93
2019-03-31T16:31:34.961Z,6.00
2019-03-31T16:34:02.288Z,8.07
2019-03-31T16:36:29.576Z,6.40
2019-03-31T16:38:56.908Z,8.93
2019-03-31T16:41:24.063Z,7.23
2019-03-31T16:43:51.313Z,6.73
2019-03-31T16:46:18.948Z,7.47
2019-03-31T16:48:46.442Z,6.17
2019-03-31T16:51:13.557Z,7.03
2019-03-31T16:53:40.974Z,6.67
2019-03-31T16:56:08.314Z,8.07
2019-03-31T16:58:35.449Z,6.90
2019-03-31T17:01:02.784Z,7.33
2019-03-31T17:03:30.445Z,9.63
2019-03-31T17:05:57.814Z,4.60
2019-03-31T17:08:25.131Z,5.53
2019-03-31T17:10:52.376Z,7.23
2019-03-31T17:13:19.801Z,6.97
2019-03-31T17:15:47.178Z,5.43
2019-03-31T17:18:14.563Z,5.33
2019-03-31T17:20:42.218Z,5.77
2019-03-31T17:23:11.412Z,5.73
2019-03-31T17:25:38.791Z,4.77
2019-03-31T17:28:06.085Z,7.17
2019-03-31T17:30:33.438Z,10.90
2019-03-31T17:33:00.789Z,6.47
2019-03-31T17:35:28.165Z,5.80
2019-03-31T17:37:55.393Z,9.73
2019-03-31T17:40:22.496Z,8.70
2019-03-31T17:42:49.706Z,5.07
2019-03-31T17:45:17.400Z,8.77
2019-03-31T17:47:44.839Z,6.57
2019-03-31T17:50:12.848Z,7.33
2019-03-31T17:52:39.844Z,12.57
2019-03-31T17:55:07.103Z,8.70
2019-03-31T17:57:34.444Z,5.70
2019-03-31T18:00:02.128Z,7.43
2019-03-31T18:02:29.630Z,7.37
2019-03-31T18:04:57.279Z,6.40
2019-03-31T18:07:24.530Z,7.80
2019-03-31T18:09:51.858Z,8.80
2019-03-31T18:12:19.360Z,6.20
2019-03-31T18:14:46.718Z,9.53
2019-03-31T18:17:14.212Z,7.03
2019-03-31T18:19:41.534Z,8.03
2019-03-31T18:22:16.301Z,6.10
2019-03-31T18:24:37.982Z,6.63
2019-03-31T18:27:05.184Z,7.23
2019-03-31T18:29:32.567Z,9.70
2019-03-31T18:31:59.911Z,9.93
2019-03-31T18:34:26.999Z,12.87
2019-03-31T18:36:54.173Z,8.10
2019-03-31T18:39:21.314Z,8.00
2019-03-31T18:41:48.550Z,8.27
2019-03-31T18:44:15.824Z,13.07
2019-03-31T18:46:43.040Z,9.60
2019-03-31T18:49:11.373Z,9.00
2019-03-31T18:51:38.742Z,9.10
2019-03-31T18:54:18.219Z,9.73
2019-03-31T18:57:10.993Z,8.43
2019-03-31T18:59:56.324Z,11.03
2019-03-31T19:02:43.182Z,10.93
2019-03-31T19:05:24.541Z,11.03
2019-03-31T19:08:10.080Z,10.87
2019-03-31T19:11:14.765Z,11.13
2019-03-31T19:13:57.805Z,11.57
2019-03-31T19:16:50.536Z,8.33
2019-03-31T19:19:49.726Z,10.30
2019-03-31T19:22:33.634Z,11.07
2019-03-31T19:25:14.844Z,8.40
2019-03-31T19:28:15.890Z,10.90
2019-03-31T19:30:52.752Z,8.53
2019-03-31T19:33:40.768Z,11.60
2019-03-31T19:36:26.141Z,13.87
2019-03-31T19:39:15.983Z,11.37
2019-03-31T19:42:02.899Z,12.77
2019-03-31T19:44:48.206Z,14.30
2019-03-31T19:47:25.016Z,15.73
2019-03-31T19:50:03.568Z,13.87
2019-03-31T19:52:44.505Z,14.43
2019-03-31T19:55:27.349Z,13.67
2019-03-31T19:58:16.831Z,17.13
2019-03-31T20:01:03.894Z,15.33
2019-03-31T20:03:51.078Z,18.57
2019-03-31T20:06:42.062Z,16.23
2019-03-31T20:09:20.965Z,14.83
2019-03-31T20:12:13.798Z,17.83
2019-03-31T20:14:54.936Z,14.43
2019-03-31T20:17:37.130Z,14.13
2019-03-31T20:20:26.835Z,17.60
2019-03-31T20:23:04.888Z,16.33
2019-03-31T20:25:47.503Z,17.70
2019-03-31T20:28:37.159Z,19.27
2019-03-31T20:31:27.168Z,19.50
2019-03-31T20:34:26.251Z,18.43
2019-03-31T20:37:22.276Z,18.93
2019-03-31T20:40:09.933Z,17.27
2019-03-31T20:43:09.001Z,18.37
2019-03-31T20:45:36.439Z,19.37
2019-03-31T20:48:03.798Z,19.27
2019-03-31T20:50:31.740Z,21.17
2019-03-31T20:52:59.215Z,16.20
2019-03-31T20:55:26.570Z,18.27
2019-03-31T20:57:53.860Z,18.13
2019-03-31T21:00:21.118Z,21.23
2019-03-31T21:02:48.664Z,19.50
2019-03-31T21:05:17.106Z,25.37
2019-03-31T21:07:44.463Z,20.47
2019-03-31T21:10:11.954Z,18.70
2019-03-31T21:12:39.330Z,16.90
2019-03-31T21:15:07.776Z,21.33
2019-03-31T21:17:35.264Z,18.40
2019-03-31T21:20:02.655Z,18.07
2019-03-31T21:22:29.933Z,23.50
2019-03-31T21:24:57.031Z,18.83
2019-03-31T21:27:24.720Z,21.00
2019-03-31T21:29:51.962Z,20.53
2019-03-31T21:32:19.169Z,20.43
2019-03-31T21:34:46.535Z,16.50
2019-03-31T21:37:13.909Z,20.97
2019-03-31T21:39:41.290Z,22.03
2019-03-31T21:42:08.626Z,21.57
2019-03-31T21:44:36.185Z,24.60
2019-03-31T21:47:03.540Z,21.03
2019-03-31T21:49:30.964Z,22.67
2019-03-31T21:51:58.582Z,35.90
2019-03-31T21:54:25.824Z,28.63
2019-03-31T21:56:53.093Z,28.00
2019-03-31T21:59:20.509Z,34.37
2019-03-31T22:01:48.014Z,27.00
2019-03-31T22:04:15.387Z,24.73
2019-03-31T22:06:42.720Z,27.00
2019-03-31T22:09:10.930Z,27.17
2019-03-31T22:11:38.920Z,28.50
2019-03-31T22:14:06.273Z,26.80
2019-03-31T22:16:33.489Z,29.97
2019-03-31T22:19:00.714Z,31.90
2019-03-31T22:21:28.108Z,28.77
2019-03-31T22:23:58.104Z,29.77
2019-03-31T22:26:25.801Z,33.77
2019-03-31T22:28:54.259Z,27.23
2019-03-31T22:31:21.702Z,31.03
2019-03-31T22:33:49.106Z,26.90
2019-03-31T22:36:22.472Z,35.40
2019-03-31T22:38:50.767Z,30.97
2019-03-31T22:41:18.367Z,28.53
2019-03-31T22:43:47.076Z,33.53
2019-03-31T22:46:14.361Z,31.37
2019-03-31T22:48:41.772Z,30.57
2019-03-31T22:51:09.120Z,31.90
2019-03-31T22:53:36.349Z,35.60
2019-03-31T22:56:03.608Z,34.87
2019-03-31T22:58:30.934Z,35.17
2019-03-31T23:00:58.391Z,32.40
2019-03-31T23:03:25.609Z,35.87
2019-03-31T23:05:53.321Z,33.97
2019-03-31T23:08:21.568Z,37.77
2019-03-31T23:10:48.940Z,36.17
2019-03-31T23:13:16.519Z,41.10
2019-03-31T23:15:43.647Z,35.97
2019-03-31T23:18:11.268Z,39.93
2019-03-31T23:20:38.505Z,35.80
2019-03-31T23:23:05.867Z,37.43
2019-03-31T23:25:33.402Z,42.07
2019-03-31T23:28:00.627Z,41.10
2019-03-31T23:30:27.989Z,40.77
2019-03-31T23:32:55.373Z,39.17
2019-03-31T23:35:22.566Z,39.27
2019-03-31T23:37:49.943Z,40.60
2019-03-31T23:40:17.307Z,36.03
2019-03-31T23:42:44.669Z,35.27
2019-03-31T23:45:12.204Z,35.30
2019-03-31T23:47:39.433Z,36.13
2019-03-31T23:50:06.826Z,35.40
2019-03-31T23:52:34.015Z,43.60
2019-03-31T23:55:01.265Z,41.20
2019-03-31T23:57:41.889Z,37.70
